createdAt,value
2017-09-15T00:01:11.096Z,1.40
2017-09-15T00:03:39.253Z,2.42
2017-09-15T00:06:07.418Z,1.73
2017-09-15T00:08:35.590Z,1.50
2017-09-15T00:11:03.791Z,1.70
2017-09-15T00:13:31.950Z,1.77
2017-09-15T00:16:00.127Z,1.70
2017-09-15T00:18:29.086Z,1.60
2017-09-15T00:20:57.719Z,1.83
2017-09-15T00:23:25.888Z,1.57
2017-09-15T00:25:54.153Z,2.00
2017-09-15T00:28:22.388Z,1.40
2017-09-15T00:30:50.576Z,1.83
2017-09-15T00:33:18.738Z,2.00
2017-09-15T00:35:46.920Z,2.23
2017-09-15T00:38:15.986Z,2.43
2017-09-15T00:40:44.924Z,1.63
2017-09-15T00:43:13.027Z,1.67
2017-09-15T00:45:41.232Z,1.77
2017-09-15T00:48:13.655Z,1.73
2017-09-15T00:50:41.818Z,1.80
2017-09-15T00:53:09.972Z,2.00
2017-09-15T00:55:38.171Z,1.53
2017-09-15T00:58:06.302Z,1.73
2017-09-15T01:00:34.809Z,1.80
2017-09-15T01:03:03.198Z,1.80
2017-09-15T01:05:31.373Z,2.27
2017-09-15T01:07:59.540Z,2.10
2017-09-15T01:10:30.644Z,2.00
2017-09-15T01:12:58.852Z,1.93
2017-09-15T01:15:27.043Z,1.63
2017-09-15T01:17:56.058Z,1.83
2017-09-15T01:20:24.276Z,2.00
2017-09-15T01:22:52.468Z,1.77
2017-09-15T01:25:20.673Z,2.00
2017-09-15T01:27:48.971Z,2.33
2017-09-15T01:30:17.134Z,2.10
2017-09-15T01:32:46.221Z,1.63
2017-09-15T01:35:14.412Z,1.80
2017-09-15T01:37:42.694Z,2.43
2017-09-15T01:40:10.876Z,2.37
2017-09-15T01:42:40.295Z,2.97
2017-09-15T01:45:08.489Z,1.70
2017-09-15T01:47:36.626Z,2.30
2017-09-15T01:50:04.932Z,2.50
2017-09-15T01:52:33.133Z,1.90
2017-09-15T01:55:01.326Z,2.03
2017-09-15T01:57:29.592Z,1.97
2017-09-15T01:59:57.798Z,2.57
2017-09-15T02:02:25.975Z,1.97
2017-09-15T02:04:54.170Z,1.80
2017-09-15T02:07:22.351Z,2.03
2017-09-15T02:09:50.530Z,2.20
2017-09-15T02:12:18.728Z,1.87
2017-09-15T02:14:46.908Z,2.10
2017-09-15T02:17:15.082Z,1.93
2017-09-15T02:19:43.229Z,2.57
2017-09-15T02:22:11.378Z,2.53
2017-09-15T02:24:39.532Z,2.20
2017-09-15T02:27:07.680Z,2.57
2017-09-15T02:29:35.872Z,2.23
2017-09-15T02:32:04.097Z,2.40
2017-09-15T02:34:32.315Z,1.70
2017-09-15T02:37:00.463Z,1.70
2017-09-15T02:39:28.691Z,2.50
2017-09-15T02:41:56.822Z,2.10
2017-09-15T02:44:25.009Z,2.10
2017-09-15T02:46:53.967Z,2.00
2017-09-15T02:49:22.146Z,1.70
2017-09-15T02:51:50.362Z,1.97
2017-09-15T02:54:18.561Z,1.60
2017-09-15T02:56:46.694Z,1.93
2017-09-15T02:59:14.841Z,1.90
2017-09-15T03:01:43.030Z,1.90
2017-09-15T03:04:11.168Z,2.83
2017-09-15T03:06:39.318Z,3.03
2017-09-15T03:09:07.542Z,1.80
2017-09-15T03:11:35.740Z,2.07
2017-09-15T03:14:03.940Z,2.70
2017-09-15T03:16:32.130Z,2.00
2017-09-15T03:19:00.303Z,2.37
2017-09-15T03:21:28.480Z,1.50
2017-09-15T03:23:56.614Z,2.67
2017-09-15T03:26:24.831Z,1.73
2017-09-15T03:28:53.008Z,2.40
2017-09-15T03:31:21.229Z,1.80
2017-09-15T03:33:49.407Z,2.70
2017-09-15T03:36:18.342Z,2.20
2017-09-15T03:38:48.464Z,2.30
2017-09-15T03:41:16.614Z,2.30
2017-09-15T03:43:44.766Z,3.03
2017-09-15T03:46:16.684Z,2.90
2017-09-15T03:49:07.418Z,2.20
2017-09-15T03:51:36.759Z,1.90
2017-09-15T03:54:04.993Z,2.30
2017-09-15T03:56:33.400Z,1.80
2017-09-15T03:59:01.531Z,2.87
2017-09-15T04:01:30.083Z,2.23
2017-09-15T04:04:03.889Z,2.00
2017-09-15T04:06:32.071Z,2.43
2017-09-15T04:09:00.210Z,2.87
2017-09-15T04:11:28.398Z,1.73
2017-09-15T04:13:56.560Z,1.77
2017-09-15T04:16:26.745Z,1.77
2017-09-15T04:18:54.992Z,2.23
2017-09-15T04:21:31.905Z,2.30
2017-09-15T04:24:00.099Z,2.07
2017-09-15T04:26:29.032Z,2.00
2017-09-15T04:28:57.991Z,2.33
2017-09-15T04:31:26.173Z,1.87
2017-09-15T04:33:55.055Z,2.00
2017-09-15T04:36:23.415Z,2.60
2017-09-15T04:38:51.630Z,1.83
2017-09-15T04:41:19.833Z,3.20
2017-09-15T04:43:48.078Z,2.17
2017-09-15T04:46:16.314Z,2.40
2017-09-15T04:48:44.482Z,2.10
2017-09-15T04:51:14.579Z,2.70
2017-09-15T04:53:59.546Z,2.60
2017-09-15T04:56:29.011Z,1.83
2017-09-15T04:58:57.200Z,2.13
2017-09-15T05:01:25.430Z,2.60
2017-09-15T05:03:53.578Z,2.43
2017-09-15T05:06:21.814Z,1.97
2017-09-15T05:08:50.899Z,2.10
2017-09-15T05:11:19.055Z,3.60
2017-09-15T05:13:47.199Z,2.17
2017-09-15T05:16:15.370Z,2.90
2017-09-15T05:18:43.559Z,2.67
2017-09-15T05:21:11.791Z,2.20
2017-09-15T05:23:40.028Z,2.60
2017-09-15T05:26:08.266Z,2.13
2017-09-15T05:28:37.201Z,2.03
2017-09-15T05:31:05.367Z,2.57
2017-09-15T05:33:33.545Z,2.10
2017-09-15T05:36:02.981Z,2.00
2017-09-15T05:38:31.365Z,2.37
2017-09-15T05:40:59.554Z,2.40
2017-09-15T05:43:27.749Z,2.50
2017-09-15T05:45:55.894Z,3.30
2017-09-15T05:48:24.131Z,2.47
2017-09-15T05:50:52.316Z,2.77
2017-09-15T05:53:20.543Z,2.70
2017-09-15T05:55:48.738Z,2.47
2017-09-15T05:58:16.938Z,3.40
2017-09-15T06:00:45.212Z,2.50
2017-09-15T06:08:56.850Z,2.40
2017-09-15T06:11:25.799Z,3.10
2017-09-15T06:13:54.017Z,4.57
2017-09-15T06:16:22.966Z,2.43
2017-09-15T06:18:51.135Z,2.43
2017-09-15T06:21:19.467Z,2.50
2017-09-15T06:23:47.573Z,3.37
2017-09-15T06:26:15.706Z,3.03
2017-09-15T06:28:43.835Z,2.90
2017-09-15T06:31:12.591Z,2.93
2017-09-15T06:33:40.712Z,2.87
2017-09-15T06:36:08.913Z,2.27
2017-09-15T06:38:37.110Z,3.73
2017-09-15T06:41:05.278Z,2.63
2017-09-15T06:43:33.476Z,2.80
2017-09-15T06:46:02.393Z,2.73
2017-09-15T06:48:30.592Z,2.60
2017-09-15T06:50:58.787Z,2.83
2017-09-15T06:53:26.990Z,2.40
2017-09-15T06:55:55.188Z,2.77
2017-09-15T06:58:23.341Z,2.60
2017-09-15T07:00:51.843Z,3.17
2017-09-15T07:03:19.955Z,3.07
2017-09-15T07:05:48.903Z,3.70
2017-09-15T07:08:17.024Z,3.17
2017-09-15T07:10:45.194Z,2.87
2017-09-15T07:13:13.422Z,2.77
2017-09-15T07:15:42.318Z,3.00
2017-09-15T07:18:10.540Z,2.70
2017-09-15T07:20:38.688Z,2.30
2017-09-15T07:23:06.825Z,2.33
2017-09-15T07:25:35.237Z,2.03
2017-09-15T07:28:03.501Z,2.47
2017-09-15T07:30:31.746Z,2.80
2017-09-15T07:32:59.939Z,2.20
2017-09-15T07:35:28.115Z,2.40
2017-09-15T07:37:56.252Z,2.40
2017-09-15T07:40:24.420Z,2.60
2017-09-15T07:42:52.591Z,2.83
2017-09-15T07:45:20.778Z,2.23
2017-09-15T07:47:49.011Z,3.40
2017-09-15T07:50:17.192Z,2.70
2017-09-15T07:52:47.400Z,2.50
2017-09-15T07:55:15.603Z,3.40
2017-09-15T07:57:43.813Z,2.70
2017-09-15T08:00:11.990Z,3.07
2017-09-15T08:02:40.226Z,3.00
2017-09-15T08:05:08.399Z,2.87
2017-09-15T08:07:38.090Z,3.37
2017-09-15T08:10:06.214Z,2.90
2017-09-15T08:12:34.459Z,2.93
2017-09-15T08:15:02.682Z,2.70
2017-09-15T08:17:30.850Z,2.77
2017-09-15T08:19:59.001Z,2.57
2017-09-15T08:22:27.171Z,2.40
2017-09-15T08:24:55.312Z,2.30
2017-09-15T08:27:23.484Z,2.30
2017-09-15T08:29:51.627Z,2.53
2017-09-15T08:32:19.819Z,1.90
2017-09-15T08:34:47.998Z,2.30
2017-09-15T08:37:16.176Z,1.80
2017-09-15T08:39:44.408Z,2.40
2017-09-15T08:42:12.575Z,2.70
2017-09-15T08:44:40.744Z,1.87
2017-09-15T08:47:08.925Z,2.50
2017-09-15T08:49:37.869Z,2.00
2017-09-15T08:52:05.989Z,1.73
2017-09-15T08:54:34.194Z,1.73
2017-09-15T08:57:02.406Z,1.87
2017-09-15T08:59:30.636Z,2.27
2017-09-15T09:01:58.793Z,2.10
2017-09-15T09:04:26.949Z,1.67
2017-09-15T09:06:55.153Z,1.80
2017-09-15T09:09:23.684Z,1.27
2017-09-15T09:11:51.901Z,1.90
2017-09-15T09:14:20.082Z,1.97
2017-09-15T09:16:49.017Z,1.90
2017-09-15T09:19:17.186Z,2.20
2017-09-15T09:21:45.364Z,1.97
2017-09-15T09:24:13.533Z,1.30
2017-09-15T09:26:41.717Z,1.40
2017-09-15T09:29:09.976Z,1.67
2017-09-15T09:31:38.103Z,1.67
2017-09-15T09:34:06.424Z,1.70
2017-09-15T09:36:34.575Z,1.70
2017-09-15T09:39:02.794Z,1.90
2017-09-15T09:41:31.710Z,2.10
2017-09-15T09:43:59.918Z,1.50
2017-09-15T09:46:28.054Z,1.53
2017-09-15T09:48:56.269Z,2.23
2017-09-15T09:51:24.506Z,1.50
2017-09-15T09:53:53.391Z,2.47
2017-09-15T09:56:22.166Z,1.90
2017-09-15T09:58:50.359Z,1.67
2017-09-15T10:01:27.334Z,1.13
2017-09-15T10:03:55.483Z,1.80
2017-09-15T10:06:23.657Z,1.90
2017-09-15T10:08:51.887Z,1.40
2017-09-15T10:11:20.051Z,1.50
2017-09-15T10:13:48.261Z,1.70
2017-09-15T10:16:16.469Z,1.43
2017-09-15T10:18:44.616Z,1.63
2017-09-15T10:21:12.810Z,1.33
2017-09-15T10:23:40.979Z,1.03
2017-09-15T10:26:09.950Z,1.50
2017-09-15T10:28:38.078Z,1.20
2017-09-15T10:31:06.349Z,1.60
2017-09-15T10:33:34.466Z,1.67
2017-09-15T10:36:02.611Z,1.60
2017-09-15T10:38:30.750Z,1.87
2017-09-15T10:40:58.942Z,1.43
2017-09-15T10:43:27.141Z,1.63
2017-09-15T10:45:55.371Z,1.80
2017-09-15T10:48:23.516Z,1.77
2017-09-15T10:50:51.716Z,1.77
2017-09-15T10:53:19.970Z,1.67
2017-09-15T10:55:48.123Z,1.80
2017-09-15T10:58:21.955Z,1.47
2017-09-15T11:00:50.162Z,1.47
2017-09-15T11:03:18.346Z,1.40
2017-09-15T11:05:46.568Z,1.67
2017-09-15T11:08:14.812Z,1.40
2017-09-15T11:10:43.009Z,1.10
2017-09-15T11:13:11.256Z,1.50
2017-09-15T11:15:39.391Z,1.43
2017-09-15T11:18:08.295Z,1.80
2017-09-15T11:20:36.705Z,1.43
2017-09-15T11:23:04.909Z,1.70
2017-09-15T11:25:33.184Z,1.70
2017-09-15T11:28:01.530Z,2.23
2017-09-15T11:30:29.780Z,1.43
2017-09-15T11:32:57.938Z,1.50
2017-09-15T11:35:26.126Z,1.92
2017-09-15T11:37:54.299Z,1.23
2017-09-15T11:40:22.439Z,1.43
2017-09-15T11:42:50.583Z,1.70
2017-09-15T11:45:18.739Z,1.30
2017-09-15T11:47:46.928Z,0.87
2017-09-15T11:50:15.143Z,1.23
2017-09-15T11:52:43.261Z,1.10
2017-09-15T11:55:12.202Z,1.00
2017-09-15T11:57:40.344Z,0.93
2017-09-15T12:00:08.903Z,1.10
2017-09-15T12:02:37.054Z,1.53
2017-09-15T12:05:05.344Z,1.20
2017-09-15T12:07:33.629Z,1.53
2017-09-15T12:10:01.839Z,2.03
2017-09-15T12:12:30.012Z,1.30
2017-09-15T12:14:58.287Z,1.10
2017-09-15T12:17:26.496Z,1.37
2017-09-15T12:19:54.984Z,1.47
2017-09-15T12:22:23.354Z,1.63
2017-09-15T12:24:51.482Z,1.43
2017-09-15T12:27:19.684Z,1.40
2017-09-15T12:29:47.863Z,1.10
2017-09-15T12:32:16.039Z,1.20
2017-09-15T12:34:44.980Z,1.40
2017-09-15T12:37:13.143Z,1.40
2017-09-15T12:39:41.289Z,1.30
2017-09-15T12:42:09.458Z,1.50
2017-09-15T12:44:37.668Z,1.00
2017-09-15T12:47:05.967Z,1.73
2017-09-15T12:49:34.166Z,1.47
2017-09-15T12:52:02.674Z,1.57
2017-09-15T12:54:30.883Z,1.10
2017-09-15T12:56:59.291Z,1.43
2017-09-15T12:59:27.559Z,1.80
2017-09-15T13:01:56.069Z,1.70
2017-09-15T13:04:25.494Z,2.10
2017-09-15T13:06:57.303Z,1.47
2017-09-15T13:09:27.369Z,1.63
2017-09-15T13:11:55.604Z,1.10
2017-09-15T13:14:23.755Z,1.60
2017-09-15T13:16:51.991Z,1.40
2017-09-15T13:19:20.371Z,1.10
2017-09-15T13:21:48.588Z,1.57
2017-09-15T13:24:16.810Z,1.63
2017-09-15T13:26:45.088Z,1.27
2017-09-15T13:29:13.319Z,2.07
2017-09-15T13:31:41.538Z,1.20
2017-09-15T13:34:09.749Z,1.73
2017-09-15T13:36:38.606Z,1.80
2017-09-15T13:39:08.476Z,1.57
2017-09-15T13:41:37.463Z,1.20
2017-09-15T13:44:06.407Z,1.60
2017-09-15T13:46:35.503Z,1.60
2017-09-15T13:49:04.231Z,2.00
2017-09-15T13:51:32.658Z,1.47
2017-09-15T13:54:01.187Z,1.80
2017-09-15T13:56:31.153Z,1.30
2017-09-15T13:59:03.396Z,1.70
2017-09-15T14:01:32.527Z,1.63
2017-09-15T14:04:11.025Z,1.60
2017-09-15T14:06:39.353Z,2.00
2017-09-15T14:09:07.782Z,1.67
2017-09-15T14:11:35.946Z,1.67
2017-09-15T14:14:04.265Z,2.00
2017-09-15T14:16:32.454Z,1.60
2017-09-15T14:19:00.603Z,2.23
2017-09-15T14:21:28.741Z,2.63
2017-09-15T14:23:56.863Z,2.20
2017-09-15T14:26:25.094Z,2.30
2017-09-15T14:28:53.338Z,2.20
2017-09-15T14:31:21.566Z,1.73
2017-09-15T14:33:49.868Z,2.00
2017-09-15T14:36:19.003Z,2.00
2017-09-15T14:38:48.015Z,1.80
2017-09-15T14:41:16.575Z,1.90
2017-09-15T14:43:44.836Z,2.43
2017-09-15T14:46:13.984Z,2.00
2017-09-15T14:48:42.221Z,2.10
2017-09-15T14:51:10.333Z,1.80
2017-09-15T14:53:38.527Z,2.13
2017-09-15T14:56:06.786Z,1.90
2017-09-15T14:58:36.750Z,1.87
2017-09-15T15:01:04.905Z,1.87
2017-09-15T15:03:34.012Z,2.10
2017-09-15T15:06:02.204Z,2.20
2017-09-15T15:08:30.366Z,1.87
2017-09-15T15:10:58.519Z,2.17
2017-09-15T15:13:26.787Z,2.00
2017-09-15T15:15:54.960Z,1.90
2017-09-15T15:18:23.061Z,2.40
2017-09-15T15:20:51.216Z,2.20
2017-09-15T15:23:19.471Z,2.10
2017-09-15T15:25:49.481Z,2.10
2017-09-15T15:28:17.647Z,2.03
2017-09-15T15:30:45.793Z,2.83
2017-09-15T15:33:13.973Z,2.27
2017-09-15T15:35:42.303Z,1.90
2017-09-15T15:38:10.431Z,2.30
2017-09-15T15:40:38.680Z,2.37
2017-09-15T15:43:06.829Z,2.70
2017-09-15T15:45:35.898Z,2.03
2017-09-15T15:48:04.032Z,1.90
2017-09-15T15:50:33.186Z,2.20
2017-09-15T15:53:01.340Z,2.10
2017-09-15T15:55:29.536Z,2.90
2017-09-15T15:57:57.678Z,2.30
2017-09-15T16:00:25.926Z,2.63
2017-09-15T16:02:54.090Z,2.53
2017-09-15T16:05:22.322Z,2.27
2017-09-15T16:07:53.943Z,2.10
2017-09-15T16:10:22.195Z,2.50
2017-09-15T16:12:50.315Z,2.90
2017-09-15T16:15:20.923Z,2.57
2017-09-15T16:17:50.760Z,2.47
2017-09-15T16:20:19.077Z,2.23
2017-09-15T16:22:50.051Z,2.47
2017-09-15T16:25:18.289Z,2.43
2017-09-15T16:27:46.416Z,3.80
2017-09-15T16:30:14.642Z,4.50
2017-09-15T16:32:42.778Z,4.77
2017-09-15T16:35:10.983Z,3.77
2017-09-15T16:37:38.603Z,3.30
2017-09-15T16:40:13.149Z,3.80
2017-09-15T16:42:50.432Z,3.70
2017-09-15T16:45:24.263Z,3.60
2017-09-15T16:47:57.980Z,3.90
2017-09-15T16:50:26.084Z,4.30
2017-09-15T16:52:54.242Z,4.70
2017-09-15T16:55:22.410Z,4.60
2017-09-15T16:57:50.563Z,4.87
2017-09-15T17:00:18.698Z,4.90
2017-09-15T17:02:46.803Z,5.33
2017-09-15T17:05:15.689Z,5.00
2017-09-15T17:07:48.663Z,5.13
2017-09-15T17:10:16.810Z,5.23
2017-09-15T17:12:45.251Z,5.40
2017-09-15T17:15:14.195Z,5.33
2017-09-15T17:17:42.430Z,7.67
2017-09-15T17:20:21.871Z,6.07
2017-09-15T17:23:06.778Z,6.20
2017-09-15T17:25:36.078Z,5.63
2017-09-15T17:28:05.335Z,6.30
2017-09-15T17:30:35.199Z,7.33
2017-09-15T17:33:03.354Z,6.70
2017-09-15T17:35:31.677Z,6.70
2017-09-15T17:37:59.784Z,7.20
2017-09-15T17:40:28.016Z,6.73
2017-09-15T17:42:58.090Z,7.90
2017-09-15T17:48:15.186Z,7.70
2017-09-15T17:50:43.367Z,7.43
2017-09-15T17:53:11.823Z,7.70
2017-09-15T17:55:40.080Z,7.10
2017-09-15T17:58:08.219Z,6.97
2017-09-15T18:00:36.391Z,6.50
2017-09-15T18:03:04.825Z,7.10
2017-09-15T18:05:32.943Z,7.50
2017-09-15T18:08:01.166Z,7.60
2017-09-15T18:10:29.616Z,7.83
2017-09-15T18:12:57.821Z,7.07
2017-09-15T18:15:25.965Z,7.50
2017-09-15T18:17:54.966Z,7.63
2017-09-15T18:20:23.110Z,8.20
2017-09-15T18:22:51.291Z,6.93
2017-09-15T18:25:19.418Z,8.03
2017-09-15T18:27:47.675Z,7.37
2017-09-15T18:30:15.883Z,7.17
2017-09-15T18:32:43.979Z,7.40
2017-09-15T18:35:12.303Z,6.20
2017-09-15T18:37:41.432Z,7.00
2017-09-15T18:40:09.646Z,6.47
2017-09-15T18:42:38.632Z,7.50
2017-09-15T18:45:08.753Z,6.60
2017-09-15T18:47:37.095Z,7.93
2017-09-15T18:50:05.313Z,7.90
2017-09-15T18:52:33.419Z,7.67
2017-09-15T18:55:01.606Z,7.13
2017-09-15T18:57:30.862Z,7.53
2017-09-15T18:59:59.190Z,8.03
2017-09-15T19:02:27.331Z,7.80
2017-09-15T19:04:55.672Z,7.03
2017-09-15T19:07:23.843Z,6.20
2017-09-15T19:09:52.011Z,7.23
2017-09-15T19:12:20.223Z,7.40
2017-09-15T19:14:48.362Z,7.43
2017-09-15T19:17:16.635Z,6.47
2017-09-15T19:19:44.805Z,7.13
2017-09-15T19:22:12.919Z,7.40
2017-09-15T19:24:41.963Z,7.30
2017-09-15T19:27:24.649Z,7.53
2017-09-15T19:29:53.110Z,8.03
2017-09-15T19:32:21.456Z,7.80
2017-09-15T19:34:49.715Z,7.97
2017-09-15T19:37:17.832Z,8.77
2017-09-15T19:39:45.921Z,7.90
2017-09-15T19:42:14.102Z,8.83
2017-09-15T19:44:42.247Z,9.03
2017-09-15T19:47:10.499Z,8.67
2017-09-15T19:49:38.971Z,9.30
2017-09-15T19:52:07.298Z,8.77
2017-09-15T19:54:38.934Z,8.80
2017-09-15T19:57:07.169Z,9.10
2017-09-15T19:59:35.348Z,10.20
2017-09-15T20:02:03.475Z,8.77
2017-09-15T20:04:31.607Z,8.90
2017-09-15T20:06:59.834Z,9.03
2017-09-15T20:09:28.070Z,8.30
2017-09-15T20:11:56.354Z,9.23
2017-09-15T20:14:25.222Z,9.63
2017-09-15T20:16:53.319Z,7.63
2017-09-15T20:19:21.461Z,8.30
2017-09-15T20:21:55.319Z,8.30
2017-09-15T20:24:23.499Z,8.33
2017-09-15T20:26:51.616Z,8.70
2017-09-15T20:29:19.738Z,9.23
2017-09-15T20:31:47.977Z,8.40
2017-09-15T20:34:16.151Z,8.57
2017-09-15T20:36:45.200Z,9.80
2017-09-15T20:39:14.196Z,8.87
2017-09-15T20:41:42.334Z,9.50
2017-09-15T20:44:10.458Z,8.47
2017-09-15T20:46:38.599Z,8.87
2017-09-15T20:49:07.673Z,9.87
2017-09-15T20:51:35.811Z,10.00
2017-09-15T20:54:04.805Z,10.43
2017-09-15T20:56:32.993Z,8.90
2017-09-15T20:59:01.090Z,8.80
2017-09-15T21:01:29.248Z,9.40
2017-09-15T21:03:57.470Z,9.10
2017-09-15T21:06:25.651Z,9.97
2017-09-15T21:08:54.531Z,10.13
2017-09-15T21:11:22.779Z,9.37
2017-09-15T21:13:51.704Z,10.13
2017-09-15T21:16:20.011Z,9.83
2017-09-15T21:18:48.321Z,8.60
2017-09-15T21:21:19.905Z,8.63
2017-09-15T21:23:48.201Z,8.23
2017-09-15T21:26:16.306Z,8.50
2017-09-15T21:28:45.660Z,7.03
2017-09-15T21:31:13.909Z,8.53
2017-09-15T21:33:42.087Z,8.33
2017-09-15T21:36:10.294Z,8.50
2017-09-15T21:38:40.061Z,9.10
2017-09-15T21:41:08.186Z,9.10
2017-09-15T21:43:37.478Z,8.87
2017-09-15T21:46:05.631Z,9.50
2017-09-15T21:48:33.922Z,8.63
2017-09-15T21:51:02.176Z,9.30
2017-09-15T21:53:30.342Z,9.90
2017-09-15T21:55:58.476Z,10.43
2017-09-15T21:58:27.402Z,9.80
2017-09-15T22:00:56.302Z,10.60
2017-09-15T23:10:37.784Z,9.73
2017-09-15T23:13:05.941Z,9.27
2017-09-15T23:15:34.118Z,8.87
2017-09-15T23:18:02.260Z,9.57
2017-09-15T23:20:30.405Z,8.73
2017-09-15T23:22:58.569Z,10.00
2017-09-15T23:25:26.756Z,10.60
2017-09-15T23:27:54.906Z,10.40
2017-09-15T23:30:23.022Z,10.20
2017-09-15T23:32:51.264Z,9.80
2017-09-15T23:35:19.523Z,9.20
2017-09-15T23:37:48.400Z,9.73
2017-09-15T23:40:16.540Z,10.70
2017-09-15T23:42:44.736Z,10.43
2017-09-15T23:45:13.072Z,10.20
2017-09-15T23:47:41.267Z,10.10
2017-09-15T23:50:09.436Z,9.13
2017-09-15T23:52:37.771Z,10.87
2017-09-15T23:55:06.151Z,9.53
2017-09-15T23:57:34.340Z,9.90
